createdAt,value
2022-12-29T00:00:25.025Z,14.95
2022-12-29T00:01:57.432Z,11.65
2022-12-29T00:03:29.735Z,11.05
2022-12-29T00:05:02.106Z,14.73
2022-12-29T00:06:34.305Z,12.32
2022-12-29T00:08:06.384Z,12.45
2022-12-29T00:09:38.944Z,11.82
2022-12-29T00:11:16.916Z,12.02
2022-12-29T00:13:07.403Z,12.40
2022-12-29T00:14:57.978Z,11.07
2022-12-29T00:16:31.371Z,11.82
2022-12-29T00:18:03.636Z,11.88
2022-12-29T00:19:54.212Z,12.32
2022-12-29T00:21:45.755Z,11.25
2022-12-29T00:23:36.380Z,13.05
2022-12-29T00:25:10.378Z,10.57
2022-12-29T00:27:01.215Z,11.82
2022-12-29T00:28:52.377Z,10.68
2022-12-29T00:30:43.089Z,11.23
2022-12-29T00:32:33.759Z,13.35
2022-12-29T00:34:24.478Z,11.85
2022-12-29T00:36:07.176Z,10.63
2022-12-29T00:38:02.075Z,10.60
2022-12-29T00:39:52.815Z,9.38
2022-12-29T00:41:43.471Z,8.85
2022-12-29T00:43:34.304Z,9.75
2022-12-29T00:45:07.651Z,7.68
2022-12-29T00:46:41.905Z,8.50
2022-12-29T00:48:13.993Z,11.32
2022-12-29T00:49:46.221Z,8.85
2022-12-29T00:51:18.497Z,10.23
2022-12-29T00:52:50.771Z,9.15
2022-12-29T00:54:23.434Z,9.77
2022-12-29T00:55:55.607Z,8.93
2022-12-29T00:57:27.724Z,10.70
2022-12-29T00:59:04.545Z,9.55
2022-12-29T01:00:36.643Z,11.02
2022-12-29T01:02:10.363Z,10.52
2022-12-29T01:03:42.591Z,13.75
2022-12-29T01:05:14.818Z,13.40
2022-12-29T01:06:47.331Z,12.38
2022-12-29T01:08:21.347Z,11.20
2022-12-29T01:10:11.726Z,13.93
2022-12-29T01:11:45.135Z,12.85
2022-12-29T01:13:17.242Z,10.40
2022-12-29T01:14:50.058Z,14.13
2022-12-29T01:16:22.139Z,13.23
2022-12-29T01:17:54.741Z,14.57
2022-12-29T01:19:27.148Z,10.43
2022-12-29T01:21:07.044Z,10.70
2022-12-29T01:22:39.374Z,11.35
2022-12-29T01:24:11.542Z,11.13
2022-12-29T01:25:43.739Z,10.85
2022-12-29T01:27:15.902Z,12.30
2022-12-29T01:28:48.025Z,11.00
2022-12-29T01:30:20.217Z,9.68
2022-12-29T01:31:52.342Z,12.43
2022-12-29T01:33:24.546Z,11.85
2022-12-29T01:34:56.617Z,9.40
2022-12-29T01:36:28.787Z,10.80
2022-12-29T01:38:01.011Z,11.97
2022-12-29T01:39:33.247Z,12.48
2022-12-29T01:41:06.766Z,12.43
2022-12-29T01:42:39.609Z,11.75
2022-12-29T01:44:51.930Z,11.07
2022-12-29T01:46:26.555Z,11.13
2022-12-29T01:48:02.141Z,10.32
2022-12-29T01:49:34.266Z,9.90
2022-12-29T01:51:06.510Z,10.40
2022-12-29T01:52:46.881Z,10.85
2022-12-29T01:54:32.863Z,9.82
2022-12-29T01:56:10.981Z,10.63
2022-12-29T01:57:47.266Z,10.13
2022-12-29T01:59:23.762Z,11.13
2022-12-29T02:00:56.178Z,12.20
2022-12-29T02:02:33.040Z,10.80
2022-12-29T02:04:05.745Z,10.48
2022-12-29T02:05:45.855Z,8.23
2022-12-29T02:07:20.897Z,8.60
2022-12-29T02:08:55.725Z,11.52
2022-12-29T02:10:31.108Z,12.02
2022-12-29T02:12:03.334Z,10.80
2022-12-29T02:13:35.776Z,10.60
2022-12-29T02:15:08.752Z,12.07
2022-12-29T02:17:06.104Z,9.82
2022-12-29T02:18:56.616Z,15.63
2022-12-29T02:20:39.377Z,10.50
2022-12-29T02:22:29.793Z,11.45
2022-12-29T02:24:35.120Z,11.02
2022-12-29T02:26:28.289Z,10.90
2022-12-29T02:28:18.390Z,9.98
2022-12-29T02:30:11.906Z,11.93
2022-12-29T02:32:01.846Z,9.50
2022-12-29T02:34:02.513Z,9.52
2022-12-29T02:36:11.188Z,11.45
2022-12-29T02:37:47.602Z,9.10
2022-12-29T02:39:28.367Z,8.32
2022-12-29T02:41:41.824Z,11.25
2022-12-29T02:43:41.514Z,11.85
2022-12-29T02:45:40.369Z,10.43
2022-12-29T02:47:37.179Z,11.38
2022-12-29T02:49:39.967Z,13.57
2022-12-29T02:51:21.992Z,11.88
2022-12-29T02:53:05.461Z,11.40
2022-12-29T02:54:43.873Z,10.30
2022-12-29T02:56:17.308Z,10.68
2022-12-29T02:58:14.791Z,11.95
2022-12-29T02:59:52.309Z,13.48
2022-12-29T03:01:27.671Z,11.57
2022-12-29T03:03:31.916Z,11.55
2022-12-29T03:05:31.860Z,10.60
2022-12-29T03:07:10.033Z,14.05
2022-12-29T03:09:00.447Z,14.13
2022-12-29T03:10:41.682Z,10.30
2022-12-29T03:12:49.498Z,13.00
2022-12-29T03:14:51.267Z,12.70
2022-12-29T03:16:46.036Z,12.68
2022-12-29T03:20:08.941Z,11.98
2022-12-29T03:22:20.927Z,15.80
2022-12-29T03:23:59.295Z,10.77
2022-12-29T03:25:34.865Z,11.00
2022-12-29T03:27:14.511Z,12.25
2022-12-29T03:28:54.188Z,11.88
2022-12-29T03:30:33.469Z,13.50
2022-12-29T03:32:08.199Z,10.32
2022-12-29T03:33:43.548Z,12.10
2022-12-29T03:35:18.430Z,11.35
2022-12-29T03:36:55.476Z,12.52
2022-12-29T03:38:43.740Z,11.90
2022-12-29T03:40:16.470Z,11.38
2022-12-29T03:41:57.705Z,13.65
2022-12-29T03:43:30.932Z,11.65
2022-12-29T03:45:05.348Z,11.85
2022-12-29T03:46:37.644Z,11.32
2022-12-29T03:48:09.750Z,12.68
2022-12-29T03:49:47.859Z,12.80
2022-12-29T03:51:19.968Z,13.70
2022-12-29T03:52:52.329Z,14.93
2022-12-29T03:54:24.930Z,11.43
2022-12-29T03:55:58.092Z,15.85
2022-12-29T03:57:30.668Z,11.23
2022-12-29T03:59:07.229Z,11.10
2022-12-29T04:00:44.397Z,13.20
2022-12-29T04:02:16.714Z,13.38
2022-12-29T04:03:51.163Z,15.90
2022-12-29T04:05:23.625Z,12.55
2022-12-29T04:06:58.923Z,14.60
2022-12-29T04:08:31.477Z,12.98
2022-12-29T04:10:04.539Z,14.73
2022-12-29T04:11:40.124Z,13.45
2022-12-29T04:13:12.360Z,12.88
2022-12-29T04:14:44.739Z,11.73
2022-12-29T04:16:16.947Z,12.30
2022-12-29T04:17:49.341Z,11.77
2022-12-29T04:19:21.480Z,13.70
2022-12-29T04:21:00.927Z,12.75
2022-12-29T04:22:33.888Z,13.73
2022-12-29T04:24:07.789Z,12.32
2022-12-29T04:25:48.420Z,12.02
2022-12-29T04:27:21.603Z,11.30
2022-12-29T04:29:12.220Z,11.38
2022-12-29T04:31:05.385Z,11.65
2022-12-29T04:32:42.849Z,12.70
2022-12-29T04:34:15.183Z,13.10
2022-12-29T04:35:48.917Z,13.23
2022-12-29T04:37:21.115Z,13.07
2022-12-29T04:38:53.631Z,15.35
2022-12-29T04:40:28.826Z,12.57
2022-12-29T04:42:00.919Z,14.77
2022-12-29T04:43:33.340Z,12.40
2022-12-29T04:45:20.664Z,12.73
2022-12-29T04:47:19.049Z,13.85
2022-12-29T04:49:09.753Z,12.38
2022-12-29T04:51:05.139Z,13.15
2022-12-29T04:52:43.215Z,11.80
2022-12-29T04:54:16.936Z,14.95
2022-12-29T04:55:54.059Z,12.73
2022-12-29T04:57:27.706Z,13.30
2022-12-29T04:59:02.655Z,12.02
2022-12-29T05:00:35.107Z,14.35
2022-12-29T05:02:07.345Z,14.85
2022-12-29T05:03:41.341Z,12.88
2022-12-29T05:05:14.097Z,13.10
2022-12-29T05:06:49.080Z,16.08
2022-12-29T05:10:01.866Z,11.23
2022-12-29T05:11:35.643Z,16.05
2022-12-29T05:13:08.202Z,14.00
2022-12-29T05:14:40.424Z,15.00
2022-12-29T05:16:13.541Z,15.52
2022-12-29T05:17:46.828Z,18.83
2022-12-29T05:19:19.035Z,14.07
2022-12-29T05:20:51.834Z,19.88
2022-12-29T05:22:26.692Z,16.83
2022-12-29T05:24:00.472Z,14.80
2022-12-29T05:27:18.780Z,12.90
2022-12-29T05:29:16.885Z,14.57
2022-12-29T05:30:52.080Z,14.00
2022-12-29T05:32:24.877Z,13.02
2022-12-29T05:33:58.503Z,14.02
2022-12-29T05:35:31.379Z,11.68
2022-12-29T05:37:03.910Z,11.40
2022-12-29T05:38:36.349Z,11.85
2022-12-29T05:40:09.377Z,10.68
2022-12-29T05:43:16.270Z,11.10
2022-12-29T05:45:15.242Z,13.68
2022-12-29T05:47:17.509Z,13.18
2022-12-29T05:49:13.503Z,12.40
2022-12-29T05:52:52.165Z,13.82
2022-12-29T05:54:25.063Z,11.65
2022-12-29T05:55:57.780Z,11.70
2022-12-29T05:57:29.907Z,12.43
2022-12-29T05:59:16.724Z,12.80
2022-12-29T06:00:49.560Z,11.80
2022-12-29T06:02:21.916Z,13.05
2022-12-29T06:03:54.457Z,13.68
2022-12-29T06:06:59.207Z,14.13
2022-12-29T06:08:43.155Z,13.43
2022-12-29T06:10:15.575Z,13.45
2022-12-29T06:11:51.496Z,12.98
2022-12-29T06:14:56.483Z,13.88
2022-12-29T06:16:28.745Z,15.18
2022-12-29T06:18:04.055Z,14.27
2022-12-29T06:19:36.251Z,12.60
2022-12-29T06:21:09.087Z,13.52
2022-12-29T06:22:42.083Z,13.95
2022-12-29T06:24:14.338Z,14.20
2022-12-29T06:25:49.067Z,11.90
2022-12-29T06:27:21.156Z,12.95
2022-12-29T06:28:53.979Z,13.43
2022-12-29T06:30:26.259Z,12.80
2022-12-29T06:31:59.359Z,13.63
2022-12-29T06:33:32.720Z,11.85
2022-12-29T06:35:05.343Z,14.55
2022-12-29T06:36:37.576Z,10.85
2022-12-29T06:39:44.159Z,10.77
2022-12-29T06:41:18.099Z,12.75
2022-12-29T06:43:08.647Z,13.82
2022-12-29T06:45:01.603Z,11.45
2022-12-29T06:46:34.014Z,14.98
2022-12-29T06:48:06.570Z,11.73
2022-12-29T06:49:38.867Z,13.10
2022-12-29T06:51:11.016Z,11.55
2022-12-29T06:52:43.130Z,12.23
2022-12-29T06:54:15.389Z,11.88
2022-12-29T06:55:47.500Z,12.60
2022-12-29T06:57:19.656Z,10.00
2022-12-29T06:58:51.809Z,13.47
2022-12-29T07:00:25.217Z,12.55
2022-12-29T07:01:57.384Z,14.43
2022-12-29T07:03:29.839Z,11.45
2022-12-29T07:05:01.915Z,14.57
2022-12-29T07:06:35.020Z,12.80
2022-12-29T07:08:07.188Z,11.57
2022-12-29T07:09:39.515Z,11.57
2022-12-29T07:11:12.038Z,14.13
2022-12-29T07:12:44.161Z,13.77
2022-12-29T07:14:16.362Z,14.03
2022-12-29T07:15:48.792Z,14.25
2022-12-29T07:17:20.811Z,13.18
2022-12-29T07:18:53.321Z,14.75
2022-12-29T07:20:27.234Z,11.65
2022-12-29T07:22:00.011Z,14.82
2022-12-29T07:23:32.548Z,13.70
2022-12-29T07:25:05.125Z,13.45
2022-12-29T07:26:37.331Z,16.52
2022-12-29T07:28:09.599Z,14.18
2022-12-29T07:29:41.663Z,14.17
2022-12-29T07:31:20.402Z,14.27
2022-12-29T07:32:52.537Z,14.13
2022-12-29T07:34:24.694Z,13.23
2022-12-29T07:35:56.884Z,12.77
2022-12-29T07:37:29.259Z,13.00
2022-12-29T07:39:01.452Z,10.57
2022-12-29T07:40:33.661Z,14.00
2022-12-29T07:42:05.779Z,13.30
2022-12-29T07:43:49.916Z,13.77
2022-12-29T07:45:57.247Z,11.75
2022-12-29T07:47:29.387Z,12.48
2022-12-29T07:49:01.566Z,13.40
2022-12-29T07:50:33.616Z,15.37
2022-12-29T07:52:05.991Z,11.35
2022-12-29T07:53:38.186Z,13.05
2022-12-29T07:55:10.321Z,12.13
2022-12-29T07:56:42.377Z,12.63
2022-12-29T07:58:14.616Z,16.08
2022-12-29T07:59:46.668Z,12.17
2022-12-29T08:01:19.166Z,14.37
2022-12-29T08:02:51.400Z,11.57
2022-12-29T08:04:23.679Z,12.88
2022-12-29T08:05:57.816Z,14.38
2022-12-29T08:07:29.960Z,12.95
2022-12-29T08:09:09.829Z,12.43
2022-12-29T08:10:44.749Z,14.38
2022-12-29T08:12:16.870Z,12.80
2022-12-29T08:13:49.115Z,10.57
2022-12-29T08:15:22.563Z,14.10
2022-12-29T08:16:56.687Z,10.95
2022-12-29T08:18:28.777Z,13.23
2022-12-29T08:20:01.081Z,12.40
2022-12-29T08:21:33.350Z,11.70
2022-12-29T08:23:05.581Z,12.55
2022-12-29T08:24:38.081Z,11.30
2022-12-29T08:26:11.349Z,16.23
2022-12-29T08:27:43.478Z,12.80
2022-12-29T08:29:15.582Z,13.13
2022-12-29T08:30:47.699Z,12.88
2022-12-29T08:32:20.030Z,15.65
2022-12-29T08:33:52.418Z,11.90
2022-12-29T08:35:24.669Z,12.48
2022-12-29T08:36:57.059Z,12.77
2022-12-29T08:38:30.117Z,11.70
2022-12-29T08:41:37.164Z,11.50
2022-12-29T08:43:09.306Z,12.57
2022-12-29T08:44:41.492Z,10.70
2022-12-29T08:46:13.851Z,11.67
2022-12-29T08:47:45.987Z,15.10
2022-12-29T08:49:18.121Z,12.57
2022-12-29T08:50:51.199Z,13.25
2022-12-29T08:52:35.309Z,12.93
2022-12-29T08:54:07.429Z,11.77
2022-12-29T08:55:39.750Z,12.63
2022-12-29T08:57:12.309Z,11.77
2022-12-29T08:58:54.994Z,13.60
2022-12-29T09:00:27.952Z,11.25
2022-12-29T09:02:00.238Z,12.35
2022-12-29T09:04:12.309Z,14.07
2022-12-29T09:05:24.762Z,13.18
2022-12-29T09:06:56.849Z,13.90
2022-12-29T09:08:29.078Z,13.30
2022-12-29T09:10:01.178Z,13.82
2022-12-29T09:11:34.908Z,14.82
2022-12-29T09:13:07.113Z,14.15
2022-12-29T09:14:39.371Z,12.40
2022-12-29T09:16:12.096Z,15.30
2022-12-29T09:17:47.196Z,13.10
2022-12-29T09:19:19.309Z,14.35
2022-12-29T09:20:57.393Z,16.92
2022-12-29T09:22:29.651Z,11.98
2022-12-29T09:24:01.805Z,15.15
2022-12-29T09:25:34.813Z,12.05
2022-12-29T09:27:06.911Z,13.73
2022-12-29T09:28:39.143Z,13.52
2022-12-29T09:30:13.329Z,12.25
2022-12-29T09:31:45.595Z,12.98
2022-12-29T09:33:18.609Z,13.80
2022-12-29T09:36:22.936Z,13.05
2022-12-29T09:37:56.373Z,12.30
2022-12-29T09:39:28.603Z,13.88
2022-12-29T09:41:08.942Z,11.57
2022-12-29T09:43:04.850Z,12.27
2022-12-29T09:45:01.264Z,15.02
2022-12-29T09:46:39.341Z,13.13
2022-12-29T09:48:18.188Z,13.23
2022-12-29T09:50:02.180Z,12.63
2022-12-29T09:51:39.143Z,11.88
2022-12-29T09:53:38.755Z,14.57
2022-12-29T09:55:29.239Z,14.77
2022-12-29T09:57:01.676Z,14.23
2022-12-29T09:58:42.709Z,11.75
2022-12-29T10:00:20.516Z,12.50
2022-12-29T10:02:54.696Z,13.93
2022-12-29T10:04:28.912Z,15.20
2022-12-29T10:06:17.685Z,12.52
2022-12-29T10:08:12.551Z,14.50
2022-12-29T10:10:03.741Z,13.57
2022-12-29T10:11:54.624Z,12.55
2022-12-29T10:14:03.696Z,13.20
2022-12-29T10:15:47.247Z,11.80
2022-12-29T10:17:41.227Z,12.95
2022-12-29T10:19:38.427Z,15.52
2022-12-29T10:21:19.626Z,13.43
2022-12-29T10:23:17.402Z,15.25
2022-12-29T10:24:52.267Z,15.88
2022-12-29T10:26:29.691Z,14.77
2022-12-29T10:28:07.402Z,12.18
2022-12-29T10:29:47.016Z,13.55
2022-12-29T10:32:00.021Z,13.60
2022-12-29T10:33:43.087Z,12.80
2022-12-29T10:35:22.191Z,11.48
2022-12-29T10:37:30.192Z,13.02
2022-12-29T10:39:05.565Z,13.23
2022-12-29T10:40:51.677Z,13.90
2022-12-29T10:42:23.900Z,13.20
2022-12-29T10:43:58.638Z,12.82
2022-12-29T10:45:33.063Z,14.32
2022-12-29T10:47:11.556Z,13.85
2022-12-29T10:48:46.390Z,13.00
2022-12-29T10:50:18.884Z,13.88
2022-12-29T10:51:53.072Z,18.10
2022-12-29T10:53:32.659Z,13.38
2022-12-29T10:55:13.831Z,13.48
2022-12-29T10:56:55.821Z,13.93
2022-12-29T10:58:29.711Z,13.15
2022-12-29T11:00:02.186Z,12.80
2022-12-29T11:01:51.389Z,14.80
2022-12-29T11:03:44.843Z,11.63
2022-12-29T11:05:37.459Z,14.40
2022-12-29T11:07:15.628Z,15.93
2022-12-29T11:08:58.857Z,15.90
2022-12-29T11:10:37.664Z,14.85
2022-12-29T11:12:30.794Z,13.43
2022-12-29T11:14:19.478Z,16.38
2022-12-29T11:15:52.520Z,14.60
2022-12-29T11:17:24.656Z,16.42
2022-12-29T11:18:56.809Z,15.38
2022-12-29T11:20:38.790Z,16.55
2022-12-29T11:22:26.465Z,12.73
2022-12-29T11:23:58.666Z,14.88
2022-12-29T11:25:31.155Z,16.30
2022-12-29T11:27:27.083Z,14.73
2022-12-29T11:29:30.514Z,15.30
2022-12-29T11:31:04.608Z,15.68
2022-12-29T11:32:36.675Z,15.75
2022-12-29T11:34:09.375Z,17.33
2022-12-29T11:35:44.112Z,15.32
2022-12-29T11:37:25.502Z,17.70
2022-12-29T11:38:57.608Z,17.67
2022-12-29T11:40:30.693Z,18.73
2022-12-29T11:43:44.293Z,16.98
2022-12-29T11:45:19.077Z,16.15
2022-12-29T11:46:53.184Z,16.75
2022-12-29T11:48:30.121Z,17.08
2022-12-29T11:50:05.425Z,16.23
2022-12-29T11:51:44.472Z,17.92
2022-12-29T11:53:27.007Z,17.27
2022-12-29T11:54:59.232Z,18.87
2022-12-29T11:56:40.862Z,16.98
2022-12-29T11:58:16.972Z,16.63
2022-12-29T11:59:52.227Z,15.30
2022-12-29T12:01:32.534Z,15.85
2022-12-29T12:03:36.328Z,14.98
2022-12-29T12:05:17.205Z,14.88
2022-12-29T12:06:58.276Z,16.67
2022-12-29T12:08:53.019Z,15.73
2022-12-29T12:10:30.809Z,15.38
2022-12-29T12:12:05.702Z,14.77
2022-12-29T12:14:00.693Z,17.05
2022-12-29T12:15:54.341Z,14.57
2022-12-29T12:17:40.987Z,14.80
2022-12-29T12:19:25.756Z,16.88
2022-12-29T12:21:05.347Z,15.90
2022-12-29T12:22:47.698Z,15.98
2022-12-29T12:24:38.195Z,15.13
2022-12-29T12:26:25.661Z,16.30
2022-12-29T12:28:17.050Z,15.82
2022-12-29T12:30:16.726Z,15.40
2022-12-29T12:31:58.745Z,13.77
2022-12-29T12:33:41.860Z,15.98
2022-12-29T12:37:29.013Z,15.60
2022-12-29T12:39:28.351Z,13.27
2022-12-29T12:41:09.288Z,14.55
2022-12-29T12:42:55.167Z,13.60
2022-12-29T12:44:48.904Z,16.80
2022-12-29T12:48:41.569Z,16.83
2022-12-29T12:50:38.510Z,19.33
2022-12-29T12:52:19.781Z,13.98
2022-12-29T12:54:07.131Z,14.75
2022-12-29T12:55:42.278Z,16.75
2022-12-29T12:57:20.492Z,15.68
2022-12-29T12:59:09.459Z,16.75
2022-12-29T13:01:07.232Z,18.05
2022-12-29T13:02:51.486Z,14.20
2022-12-29T13:04:38.602Z,19.48
2022-12-29T13:06:25.895Z,16.58
2022-12-29T13:08:24.900Z,15.93
2022-12-29T13:10:17.780Z,17.77
2022-12-29T13:12:04.340Z,15.30
2022-12-29T13:13:55.341Z,17.35
2022-12-29T13:15:58.133Z,14.90
2022-12-29T13:17:57.627Z,16.77
2022-12-29T13:19:47.514Z,14.45
2022-12-29T13:21:56.241Z,18.15
2022-12-29T13:23:39.540Z,15.98
2022-12-29T13:25:26.592Z,16.42
2022-12-29T13:27:21.283Z,16.85
2022-12-29T13:29:11.962Z,20.42
2022-12-29T13:31:12.802Z,18.73
2022-12-29T13:32:57.086Z,18.80
2022-12-29T13:34:32.097Z,18.88
2022-12-29T13:36:17.484Z,19.25
2022-12-29T13:37:55.506Z,20.38
2022-12-29T13:39:34.253Z,15.73
2022-12-29T13:41:15.197Z,16.27
2022-12-29T13:42:48.444Z,17.05
2022-12-29T13:44:33.201Z,20.23
2022-12-29T13:46:17.046Z,17.00
2022-12-29T13:47:49.091Z,15.98
2022-12-29T13:49:25.406Z,19.40
2022-12-29T13:51:00.993Z,17.65
2022-12-29T13:52:38.778Z,15.77
2022-12-29T13:54:32.083Z,18.88
2022-12-29T13:56:26.688Z,20.27
2022-12-29T13:58:09.194Z,21.98
2022-12-29T13:59:51.955Z,24.03
2022-12-29T14:01:35.128Z,22.40
2022-12-29T14:03:41.727Z,20.73
2022-12-29T14:05:19.861Z,21.42
2022-12-29T14:07:05.987Z,20.73
2022-12-29T14:08:38.119Z,18.40
2022-12-29T14:10:51.152Z,20.80
2022-12-29T14:12:34.125Z,19.95
2022-12-29T14:14:19.482Z,18.58
2022-12-29T14:15:59.905Z,19.15
2022-12-29T14:17:32.250Z,19.48
2022-12-29T14:19:18.854Z,18.70
2022-12-29T14:20:57.872Z,21.08
2022-12-29T14:22:33.187Z,19.40
2022-12-29T14:24:36.315Z,20.48
2022-12-29T14:26:08.398Z,18.05
2022-12-29T14:27:53.955Z,23.97
2022-12-29T14:29:26.100Z,20.08
2022-12-29T14:31:18.236Z,18.10
2022-12-29T14:33:12.519Z,19.92
2022-12-29T14:34:50.336Z,21.30
2022-12-29T14:36:35.580Z,20.40
2022-12-29T14:39:50.039Z,18.00
2022-12-29T14:41:30.135Z,20.23
2022-12-29T14:43:02.282Z,18.95
2022-12-29T14:44:35.437Z,21.67
2022-12-29T14:46:09.498Z,20.90
2022-12-29T14:47:53.774Z,19.70
2022-12-29T14:49:32.340Z,19.60
2022-12-29T14:51:26.775Z,18.73
2022-12-29T14:53:04.169Z,19.40
2022-12-29T14:54:39.524Z,18.42
2022-12-29T14:56:13.250Z,18.08
2022-12-29T14:57:50.743Z,19.10
2022-12-29T14:59:23.685Z,21.38
2022-12-29T15:00:56.579Z,20.48
2022-12-29T15:04:26.033Z,18.33
2022-12-29T15:06:17.830Z,20.58
2022-12-29T15:07:50.648Z,18.25
2022-12-29T15:09:31.566Z,18.45
2022-12-29T15:11:07.176Z,19.80
2022-12-29T15:12:44.641Z,22.25
2022-12-29T15:14:38.335Z,20.98
2022-12-29T15:16:40.198Z,20.92
2022-12-29T15:18:24.031Z,23.10
2022-12-29T15:19:58.231Z,18.25
2022-12-29T15:21:32.786Z,19.77
2022-12-29T15:23:12.320Z,18.65
2022-12-29T15:24:45.177Z,21.92
2022-12-29T15:26:23.231Z,18.20
2022-12-29T15:28:01.911Z,21.30
2022-12-29T15:29:45.343Z,17.90
2022-12-29T15:31:30.153Z,20.60
2022-12-29T15:33:03.827Z,22.80
2022-12-29T15:34:35.943Z,20.13
2022-12-29T15:36:25.691Z,19.30
2022-12-29T15:37:58.835Z,23.15
2022-12-29T15:39:32.204Z,22.63
2022-12-29T15:41:54.976Z,20.58
2022-12-29T15:43:54.842Z,20.10
2022-12-29T15:45:33.506Z,21.52
2022-12-29T15:47:07.768Z,20.75
2022-12-29T15:48:41.380Z,19.30
2022-12-29T15:50:29.411Z,19.65
2022-12-29T15:52:02.811Z,23.17
2022-12-29T15:53:35.062Z,22.48
2022-12-29T15:55:19.120Z,24.20
2022-12-29T15:56:51.516Z,20.50
2022-12-29T15:58:26.415Z,26.25
2022-12-29T15:59:58.651Z,23.38
2022-12-29T16:01:36.658Z,23.17
2022-12-29T16:03:15.030Z,18.80
2022-12-29T16:05:16.101Z,20.20
2022-12-29T16:06:54.768Z,19.85
2022-12-29T16:08:33.624Z,18.60
2022-12-29T16:10:06.154Z,18.05
2022-12-29T16:12:06.618Z,20.08
2022-12-29T16:13:42.559Z,21.17
2022-12-29T16:15:15.956Z,21.33
2022-12-29T16:16:50.636Z,20.13
2022-12-29T16:18:30.231Z,24.15
2022-12-29T16:20:16.986Z,21.88
2022-12-29T16:21:49.439Z,25.10
2022-12-29T16:23:26.032Z,20.42
2022-12-29T16:25:07.391Z,21.42
2022-12-29T16:26:39.597Z,22.10
2022-12-29T16:28:24.002Z,23.63
2022-12-29T16:29:56.615Z,23.55
2022-12-29T16:31:37.314Z,21.40
2022-12-29T16:33:37.694Z,22.30
2022-12-29T16:35:20.669Z,22.42
2022-12-29T16:37:29.886Z,20.63
2022-12-29T16:39:23.222Z,22.10
2022-12-29T16:41:00.072Z,20.95
2022-12-29T16:42:50.573Z,20.55
2022-12-29T16:44:31.698Z,22.90
2022-12-29T16:46:18.149Z,23.90
2022-12-29T16:48:08.895Z,20.55
2022-12-29T16:49:44.482Z,23.83
2022-12-29T16:51:34.129Z,22.50
2022-12-29T16:53:08.235Z,20.58
2022-12-29T16:54:41.553Z,20.63
2022-12-29T16:56:20.101Z,22.42
2022-12-29T16:57:56.702Z,22.30
2022-12-29T16:59:36.680Z,22.55
2022-12-29T17:01:15.710Z,22.40
2022-12-29T17:02:50.552Z,23.58
2022-12-29T17:04:22.796Z,23.67
2022-12-29T17:05:57.626Z,25.08
2022-12-29T17:07:30.081Z,22.85
2022-12-29T17:09:02.423Z,22.60
2022-12-29T17:10:53.570Z,21.85
2022-12-29T17:12:28.539Z,21.02
2022-12-29T17:14:00.665Z,22.85
2022-12-29T17:15:35.273Z,23.05
2022-12-29T17:17:16.195Z,23.02
2022-12-29T17:18:48.394Z,24.95
2022-12-29T17:20:20.539Z,22.73
2022-12-29T17:21:52.675Z,22.73
2022-12-29T17:23:26.757Z,21.47
2022-12-29T17:25:00.995Z,20.73
2022-12-29T17:26:33.135Z,21.08
2022-12-29T17:28:19.554Z,24.40
2022-12-29T17:29:53.669Z,20.13
2022-12-29T17:31:26.391Z,24.30
2022-12-29T17:33:01.588Z,25.40
2022-12-29T17:34:34.337Z,28.05
2022-12-29T17:36:06.803Z,27.48
2022-12-29T17:37:39.020Z,27.38
2022-12-29T17:39:11.433Z,23.50
2022-12-29T17:40:43.642Z,24.38
2022-12-29T17:42:15.857Z,21.17
2022-12-29T17:43:47.987Z,22.95
2022-12-29T17:45:48.072Z,22.03
2022-12-29T17:47:20.228Z,22.30
2022-12-29T17:48:53.997Z,22.13
2022-12-29T17:50:29.829Z,23.45
2022-12-29T17:52:02.263Z,18.15
2022-12-29T17:53:34.466Z,23.98
2022-12-29T17:55:07.130Z,22.10
2022-12-29T17:56:39.249Z,23.83
2022-12-29T17:58:22.089Z,23.83
2022-12-29T17:59:54.212Z,23.90
2022-12-29T18:01:32.459Z,21.50
2022-12-29T18:03:14.555Z,23.77
2022-12-29T18:04:46.833Z,22.60
2022-12-29T18:06:18.997Z,23.60
2022-12-29T18:07:53.144Z,23.70
2022-12-29T18:09:25.318Z,21.10
2022-12-29T18:10:57.542Z,25.77
2022-12-29T18:12:50.473Z,21.30
2022-12-29T18:14:22.553Z,20.50
2022-12-29T18:15:55.084Z,24.67
2022-12-29T18:17:27.417Z,21.50
2022-12-29T18:18:59.853Z,22.38
2022-12-29T18:20:32.111Z,21.92
2022-12-29T18:22:04.314Z,24.58
2022-12-29T18:23:36.411Z,27.15
2022-12-29T18:25:47.885Z,25.52
2022-12-29T18:27:22.254Z,24.00
2022-12-29T18:28:55.265Z,26.58
2022-12-29T18:31:59.430Z,24.17
2022-12-29T18:33:31.505Z,23.63
2022-12-29T18:35:03.820Z,24.23
2022-12-29T18:36:35.980Z,24.92
2022-12-29T18:38:08.477Z,23.95
2022-12-29T18:39:40.764Z,22.35
2022-12-29T18:41:29.828Z,23.00
2022-12-29T18:43:02.492Z,25.58
2022-12-29T18:44:35.155Z,27.65
2022-12-29T18:46:07.389Z,23.33
2022-12-29T18:47:39.548Z,26.63
2022-12-29T18:49:11.700Z,23.67
2022-12-29T18:50:44.762Z,24.53
2022-12-29T18:52:16.823Z,23.20
2022-12-29T18:53:49.994Z,22.08
2022-12-29T18:55:24.988Z,22.42
2022-12-29T18:56:57.758Z,27.45
2022-12-29T18:58:34.127Z,26.88
2022-12-29T19:00:09.400Z,23.85
2022-12-29T19:01:41.653Z,24.95
2022-12-29T19:03:16.360Z,24.77
2022-12-29T19:04:52.841Z,27.48
2022-12-29T19:06:25.590Z,26.27
2022-12-29T19:07:57.785Z,27.60
2022-12-29T19:09:29.968Z,26.30
2022-12-29T19:11:02.475Z,24.13
2022-12-29T19:12:34.661Z,25.90
2022-12-29T19:14:08.709Z,23.53
2022-12-29T19:15:41.161Z,23.80
2022-12-29T19:17:13.705Z,28.10
2022-12-29T19:18:53.289Z,24.02
2022-12-29T19:20:41.668Z,26.10
2022-12-29T19:22:13.870Z,25.98
2022-12-29T19:23:46.435Z,29.13
2022-12-29T19:25:18.527Z,24.98
2022-12-29T19:26:50.712Z,26.73
2022-12-29T19:28:27.920Z,26.13
2022-12-29T19:30:00.136Z,23.77
2022-12-29T19:31:32.483Z,29.13
2022-12-29T19:33:09.727Z,23.77
2022-12-29T19:34:42.302Z,25.20
2022-12-29T19:36:18.016Z,22.77
2022-12-29T19:37:50.417Z,26.17
2022-12-29T19:39:22.885Z,27.50
2022-12-29T19:40:55.125Z,28.38
2022-12-29T19:42:27.201Z,27.40
2022-12-29T19:43:59.353Z,25.13
2022-12-29T19:45:31.775Z,26.60
2022-12-29T19:47:04.056Z,26.85
2022-12-29T19:48:36.605Z,23.80
2022-12-29T19:50:12.281Z,27.20
2022-12-29T19:51:44.501Z,26.17
2022-12-29T19:53:16.795Z,27.63
2022-12-29T19:54:48.869Z,25.13
2022-12-29T19:56:21.101Z,24.60
2022-12-29T19:57:53.226Z,26.60
2022-12-29T19:59:25.541Z,28.38
2022-12-29T20:01:05.077Z,27.10
2022-12-29T20:02:37.874Z,29.05
2022-12-29T20:05:42.070Z,24.80
2022-12-29T20:07:17.721Z,28.58
2022-12-29T20:08:50.095Z,28.10
2022-12-29T20:10:22.257Z,25.30
2022-12-29T20:11:54.527Z,28.20
2022-12-29T20:13:27.071Z,26.05
2022-12-29T20:14:59.196Z,29.85
2022-12-29T20:16:31.426Z,22.02
2022-12-29T20:18:13.662Z,23.98
2022-12-29T20:19:46.835Z,24.45
2022-12-29T20:21:21.703Z,25.33
2022-12-29T20:22:54.367Z,25.00
2022-12-29T20:24:26.527Z,25.58
2022-12-29T20:26:00.367Z,27.40
2022-12-29T20:27:32.691Z,25.65
2022-12-29T20:29:04.821Z,26.00
2022-12-29T20:30:37.115Z,25.70
2022-12-29T20:32:21.137Z,26.10
2022-12-29T20:33:54.134Z,26.02
2022-12-29T20:35:26.309Z,27.83
2022-12-29T20:36:58.675Z,26.20
2022-12-29T20:38:30.837Z,26.38
2022-12-29T20:40:03.169Z,27.90
2022-12-29T20:41:36.247Z,24.38
2022-12-29T20:44:41.199Z,24.10
2022-12-29T20:46:19.508Z,27.15
2022-12-29T20:47:53.110Z,22.95
2022-12-29T20:49:25.562Z,25.25
2022-12-29T20:51:00.861Z,28.33
2022-12-29T20:52:33.024Z,26.15
2022-12-29T20:54:05.171Z,25.98
2022-12-29T20:55:41.231Z,25.17
2022-12-29T20:57:13.664Z,28.60
2022-12-29T20:59:25.351Z,25.27
2022-12-29T21:00:38.472Z,25.38
2022-12-29T21:02:22.521Z,26.67
2022-12-29T21:03:54.914Z,25.80
2022-12-29T21:05:28.042Z,26.05
2022-12-29T21:07:00.185Z,29.02
2022-12-29T21:08:32.437Z,24.90
2022-12-29T21:10:04.860Z,28.05
2022-12-29T21:11:37.344Z,23.35
2022-12-29T21:13:09.523Z,26.15
2022-12-29T21:14:45.535Z,25.42
2022-12-29T21:16:21.114Z,26.05
2022-12-29T21:17:53.385Z,30.55
2022-12-29T21:19:25.454Z,27.20
2022-12-29T21:20:59.585Z,30.25
2022-12-29T21:22:31.658Z,30.45
2022-12-29T21:24:06.565Z,27.05
2022-12-29T21:25:43.754Z,24.30
2022-12-29T21:27:16.059Z,20.27
2022-12-29T21:28:48.455Z,25.85
2022-12-29T21:30:20.607Z,26.42
2022-12-29T21:31:52.671Z,24.35
2022-12-29T21:33:24.812Z,25.40
2022-12-29T21:34:56.957Z,23.63
2022-12-29T21:36:29.873Z,27.40
2022-12-29T21:38:02.009Z,23.52
2022-12-29T21:39:34.174Z,28.05
2022-12-29T21:41:11.754Z,22.33